< < Back
Terminal Aerodrome Forecast


Current Version              Previous Versions:   1  2  3  4  5  6  7  8  9  

Terminal Aerodrome Forecast

806
FTUS42 KFFC 272034 AAB
TAFATL
TAF AMD
KATL 272034Z 2721/2824 32006KT P6SM VCSH SCT060
      TEMPO 2721/2723 6SM -SHRA BKN060
     FM280100 30003KT P6SM SCT120
     FM280600 01003KT P6SM SCT250
     FM281400 34005KT P6SM FEW040
     FM281800 32006KT P6SM SCT050=

Latest METAR

989
SAUS70 KWBC 280100 RRD
MTRATL
METAR KATL 280052Z 31004KT 10SM FEW110 SCT150 BKN250 27/20 A2997 RMK AO2
SLP137 T02720200


USA.gov is the U.S. government's official web portal to all federal, state and local government web resources and services.